sensor_id;sensor_type;location;lat;lon;timestamp;P1;durP1;ratioP1;P2;durP2;ratioP2
6823;SDS011;58633;49.470;11.004;2023-02-28T00:00:17;3.10;;;2.80;;
6823;SDS011;58633;49.470;11.004;2023-02-28T00:02:45;3.20;;;2.90;;
6823;SDS011;58633;49.470;11.004;2023-02-28T00:05:12;3.63;;;3.13;;
6823;SDS011;58633;49.470;11.004;2023-02-28T00:07:38;3.87;;;2.83;;
6823;SDS011;58633;49.470;11.004;2023-02-28T00:10:05;4.63;;;3.00;;
6823;SDS011;58633;49.470;11.004;2023-02-28T00:12:33;4.27;;;3.00;;
6823;SDS011;58633;49.470;11.004;2023-02-28T00:14:59;3.77;;;2.80;;
6823;SDS011;58633;49.470;11.004;2023-02-28T00:17:25;3.97;;;3.00;;
6823;SDS011;58633;49.470;11.004;2023-02-28T00:19:50;5.03;;;3.10;;
6823;SDS011;58633;49.470;11.004;2023-02-28T00:22:17;3.23;;;2.80;;
6823;SDS011;58633;49.470;11.004;2023-02-28T00:24:44;3.20;;;2.80;;
6823;SDS011;58633;49.470;11.004;2023-02-28T00:27:10;3.13;;;2.93;;
6823;SDS011;58633;49.470;11.004;2023-02-28T00:29:36;3.27;;;2.93;;
6823;SDS011;58633;49.470;11.004;2023-02-28T00:32:02;3.30;;;3.00;;
6823;SDS011;58633;49.470;11.004;2023-02-28T00:34:28;3.70;;;3.00;;
6823;SDS011;58633;49.470;11.004;2023-02-28T00:36:54;3.53;;;3.27;;
6823;SDS011;58633;49.470;11.004;2023-02-28T00:39:19;4.43;;;3.23;;
6823;SDS011;58633;49.470;11.004;2023-02-28T00:41:45;5.67;;;3.23;;
6823;SDS011;58633;49.470;11.004;2023-02-28T00:44:11;5.77;;;3.43;;
6823;SDS011;58633;49.470;11.004;2023-02-28T00:46:36;7.23;;;3.50;;
6823;SDS011;58633;49.470;11.004;2023-02-28T00:49:02;3.53;;;2.63;;
6823;SDS011;58633;49.470;11.004;2023-02-28T00:51:27;4.27;;;3.50;;
6823;SDS011;58633;49.470;11.004;2023-02-28T00:53:53;4.33;;;3.27;;
6823;SDS011;58633;49.470;11.004;2023-02-28T00:56:19;4.00;;;3.07;;
6823;SDS011;58633;49.470;11.004;2023-02-28T00:58:45;3.53;;;3.23;;
6823;SDS011;58633;49.470;11.004;2023-02-28T01:01:11;3.93;;;3.30;;
6823;SDS011;58633;49.470;11.004;2023-02-28T01:03:37;3.50;;;3.10;;
6823;SDS011;58633;49.470;11.004;2023-02-28T01:06:03;3.67;;;3.37;;
6823;SDS011;58633;49.470;11.004;2023-02-28T01:08:29;4.50;;;3.13;;
6823;SDS011;58633;49.470;11.004;2023-02-28T01:10:55;3.97;;;3.40;;
6823;SDS011;58633;49.470;11.004;2023-02-28T01:13:20;4.03;;;3.50;;
6823;SDS011;58633;49.470;11.004;2023-02-28T01:15:52;3.53;;;3.17;;
6823;SDS011;58633;49.470;11.004;2023-02-28T01:18:20;4.23;;;3.37;;
6823;SDS011;58633;49.470;11.004;2023-02-28T01:20:46;5.63;;;3.57;;
6823;SDS011;58633;49.470;11.004;2023-02-28T01:23:12;5.07;;;3.10;;
6823;SDS011;58633;49.470;11.004;2023-02-28T01:25:38;4.87;;;3.10;;
6823;SDS011;58633;49.470;11.004;2023-02-28T01:28:04;7.37;;;3.60;;
6823;SDS011;58633;49.470;11.004;2023-02-28T01:30:31;4.57;;;3.43;;
6823;SDS011;58633;49.470;11.004;2023-02-28T01:32:56;4.00;;;3.43;;
6823;SDS011;58633;49.470;11.004;2023-02-28T01:35:22;6.73;;;3.53;;
6823;SDS011;58633;49.470;11.004;2023-02-28T01:37:48;3.93;;;3.30;;
6823;SDS011;58633;49.470;11.004;2023-02-28T01:40:13;4.77;;;3.53;;
6823;SDS011;58633;49.470;11.004;2023-02-28T01:42:39;3.43;;;3.13;;
6823;SDS011;58633;49.470;11.004;2023-02-28T01:47:51;4.50;;;3.40;;
6823;SDS011;58633;49.470;11.004;2023-02-28T01:50:22;5.50;;;3.57;;
6823;SDS011;58633;49.470;11.004;2023-02-28T01:52:51;4.20;;;3.33;;
6823;SDS011;58633;49.470;11.004;2023-02-28T01:55:19;5.13;;;3.60;;
6823;SDS011;58633;49.470;11.004;2023-02-28T01:57:48;4.40;;;3.70;;
6823;SDS011;58633;49.470;11.004;2023-02-28T02:00:18;4.00;;;3.50;;
6823;SDS011;58633;49.470;11.004;2023-02-28T02:02:47;5.30;;;3.83;;
6823;SDS011;58633;49.470;11.004;2023-02-28T02:05:19;4.37;;;3.30;;
6823;SDS011;58633;49.470;11.004;2023-02-28T02:07:47;4.07;;;3.50;;
6823;SDS011;58633;49.470;11.004;2023-02-28T02:10:20;5.07;;;3.77;;
6823;SDS011;58633;49.470;11.004;2023-02-28T02:15:49;5.97;;;3.57;;
6823;SDS011;58633;49.470;11.004;2023-02-28T02:32:18;5.30;;;3.90;;
6823;SDS011;58633;49.470;11.004;2023-02-28T02:35:11;6.17;;;3.60;;
6823;SDS011;58633;49.470;11.004;2023-02-28T02:37:58;4.60;;;3.80;;
6823;SDS011;58633;49.470;11.004;2023-02-28T02:40:38;5.17;;;3.40;;
6823;SDS011;58633;49.470;11.004;2023-02-28T02:43:29;6.50;;;3.67;;
6823;SDS011;58633;49.470;11.004;2023-02-28T02:46:32;6.20;;;3.73;;
6823;SDS011;58633;49.470;11.004;2023-02-28T02:49:21;4.83;;;3.50;;
6823;SDS011;58633;49.470;11.004;2023-02-28T02:51:56;4.93;;;3.67;;
6823;SDS011;58633;49.470;11.004;2023-02-28T02:54:24;4.50;;;3.60;;
6823;SDS011;58633;49.470;11.004;2023-02-28T02:56:53;5.97;;;3.67;;
6823;SDS011;58633;49.470;11.004;2023-02-28T02:59:22;3.77;;;3.27;;
6823;SDS011;58633;49.470;11.004;2023-02-28T03:01:53;4.47;;;3.83;;
6823;SDS011;58633;49.470;11.004;2023-02-28T03:04:23;4.47;;;3.93;;
6823;SDS011;58633;49.470;11.004;2023-02-28T03:06:51;4.17;;;3.50;;
6823;SDS011;58633;49.470;11.004;2023-02-28T03:09:23;5.53;;;3.80;;
6823;SDS011;58633;49.470;11.004;2023-02-28T03:11:50;5.37;;;3.63;;
6823;SDS011;58633;49.470;11.004;2023-02-28T03:17:17;4.93;;;4.23;;
6823;SDS011;58633;49.470;11.004;2023-02-28T03:22:41;5.37;;;4.10;;
6823;SDS011;58633;49.470;11.004;2023-02-28T03:30:47;6.93;;;4.23;;
6823;SDS011;58633;49.470;11.004;2023-02-28T03:33:20;5.80;;;4.00;;
6823;SDS011;58633;49.470;11.004;2023-02-28T03:35:54;6.50;;;3.93;;
6823;SDS011;58633;49.470;11.004;2023-02-28T03:38:26;6.33;;;4.20;;
6823;SDS011;58633;49.470;11.004;2023-02-28T03:41:30;5.80;;;4.50;;
6823;SDS011;58633;49.470;11.004;2023-02-28T03:43:53;5.67;;;4.07;;
6823;SDS011;58633;49.470;11.004;2023-02-28T03:46:22;5.77;;;3.97;;
6823;SDS011;58633;49.470;11.004;2023-02-28T03:48:53;6.17;;;4.30;;
6823;SDS011;58633;49.470;11.004;2023-02-28T03:51:22;5.53;;;4.23;;
6823;SDS011;58633;49.470;11.004;2023-02-28T03:53:51;5.93;;;4.33;;
6823;SDS011;58633;49.470;11.004;2023-02-28T03:56:21;8.13;;;4.33;;
6823;SDS011;58633;49.470;11.004;2023-02-28T04:01:31;6.00;;;4.73;;
6823;SDS011;58633;49.470;11.004;2023-02-28T04:04:02;6.00;;;4.47;;
6823;SDS011;58633;49.470;11.004;2023-02-28T04:06:30;6.63;;;4.80;;
6823;SDS011;58633;49.470;11.004;2023-02-28T04:08:57;6.47;;;4.93;;
6823;SDS011;58633;49.470;11.004;2023-02-28T04:14:01;7.27;;;4.57;;
6823;SDS011;58633;49.470;11.004;2023-02-28T04:16:28;7.73;;;5.10;;
6823;SDS011;58633;49.470;11.004;2023-02-28T04:18:54;7.83;;;4.77;;
6823;SDS011;58633;49.470;11.004;2023-02-28T04:21:28;7.27;;;4.83;;
6823;SDS011;58633;49.470;11.004;2023-02-28T04:23:55;6.40;;;4.43;;
6823;SDS011;58633;49.470;11.004;2023-02-28T04:26:25;6.80;;;4.97;;
6823;SDS011;58633;49.470;11.004;2023-02-28T04:28:58;6.53;;;4.63;;
6823;SDS011;58633;49.470;11.004;2023-02-28T04:31:24;7.10;;;5.03;;
6823;SDS011;58633;49.470;11.004;2023-02-28T04:33:49;6.40;;;4.40;;
6823;SDS011;58633;49.470;11.004;2023-02-28T04:36:15;6.37;;;4.53;;
6823;SDS011;58633;49.470;11.004;2023-02-28T04:38:42;5.37;;;4.47;;
6823;SDS011;58633;49.470;11.004;2023-02-28T04:41:09;7.77;;;4.47;;
6823;SDS011;58633;49.470;11.004;2023-02-28T04:43:34;5.67;;;4.27;;
6823;SDS011;58633;49.470;11.004;2023-02-28T04:46:01;6.13;;;4.63;;
6823;SDS011;58633;49.470;11.004;2023-02-28T04:48:29;6.03;;;4.47;;
6823;SDS011;58633;49.470;11.004;2023-02-28T04:50:59;7.53;;;5.10;;
6823;SDS011;58633;49.470;11.004;2023-02-28T04:53:29;6.87;;;4.73;;
6823;SDS011;58633;49.470;11.004;2023-02-28T04:55:55;5.93;;;4.57;;
6823;SDS011;58633;49.470;11.004;2023-02-28T04:58:21;6.30;;;4.83;;
6823;SDS011;58633;49.470;11.004;2023-02-28T05:00:48;7.77;;;5.10;;
6823;SDS011;58633;49.470;11.004;2023-02-28T05:03:14;8.03;;;5.00;;
6823;SDS011;58633;49.470;11.004;2023-02-28T05:05:40;7.40;;;5.07;;
6823;SDS011;58633;49.470;11.004;2023-02-28T05:08:06;6.70;;;4.60;;
6823;SDS011;58633;49.470;11.004;2023-02-28T05:10:32;6.70;;;5.33;;
6823;SDS011;58633;49.470;11.004;2023-02-28T05:12:58;7.73;;;4.83;;
6823;SDS011;58633;49.470;11.004;2023-02-28T05:15:23;6.73;;;5.00;;
6823;SDS011;58633;49.470;11.004;2023-02-28T05:17:49;8.20;;;5.23;;
6823;SDS011;58633;49.470;11.004;2023-02-28T05:20:14;7.73;;;5.10;;
6823;SDS011;58633;49.470;11.004;2023-02-28T05:22:40;6.83;;;5.40;;
6823;SDS011;58633;49.470;11.004;2023-02-28T05:25:08;8.47;;;5.07;;
6823;SDS011;58633;49.470;11.004;2023-02-28T05:27:43;6.80;;;4.93;;
6823;SDS011;58633;49.470;11.004;2023-02-28T05:30:09;10.07;;;5.03;;
6823;SDS011;58633;49.470;11.004;2023-02-28T05:32:36;7.10;;;5.07;;
6823;SDS011;58633;49.470;11.004;2023-02-28T05:35:02;7.77;;;5.00;;
6823;SDS011;58633;49.470;11.004;2023-02-28T05:37:28;7.50;;;5.10;;
6823;SDS011;58633;49.470;11.004;2023-02-28T05:39:55;7.77;;;5.40;;
6823;SDS011;58633;49.470;11.004;2023-02-28T05:42:21;8.93;;;5.60;;
6823;SDS011;58633;49.470;11.004;2023-02-28T05:44:46;7.37;;;4.53;;
6823;SDS011;58633;49.470;11.004;2023-02-28T05:47:12;7.30;;;5.30;;
6823;SDS011;58633;49.470;11.004;2023-02-28T05:49:40;7.73;;;4.83;;
6823;SDS011;58633;49.470;11.004;2023-02-28T05:52:06;9.67;;;5.37;;
6823;SDS011;58633;49.470;11.004;2023-02-28T05:54:32;8.57;;;5.00;;
6823;SDS011;58633;49.470;11.004;2023-02-28T05:56:57;7.50;;;5.37;;
6823;SDS011;58633;49.470;11.004;2023-02-28T05:59:23;6.13;;;4.80;;
6823;SDS011;58633;49.470;11.004;2023-02-28T06:01:48;9.97;;;5.10;;
6823;SDS011;58633;49.470;11.004;2023-02-28T06:04:15;6.53;;;5.50;;
6823;SDS011;58633;49.470;11.004;2023-02-28T06:06:44;8.87;;;4.83;;
6823;SDS011;58633;49.470;11.004;2023-02-28T06:09:10;8.43;;;5.30;;
6823;SDS011;58633;49.470;11.004;2023-02-28T06:11:36;6.57;;;5.20;;
6823;SDS011;58633;49.470;11.004;2023-02-28T06:14:02;7.87;;;5.17;;
6823;SDS011;58633;49.470;11.004;2023-02-28T06:16:29;7.10;;;5.13;;
6823;SDS011;58633;49.470;11.004;2023-02-28T06:18:57;7.20;;;5.40;;
6823;SDS011;58633;49.470;11.004;2023-02-28T06:21:24;9.17;;;5.67;;
6823;SDS011;58633;49.470;11.004;2023-02-28T06:23:50;8.23;;;5.37;;
6823;SDS011;58633;49.470;11.004;2023-02-28T06:26:15;8.13;;;5.50;;
6823;SDS011;58633;49.470;11.004;2023-02-28T06:28:41;7.53;;;5.63;;
6823;SDS011;58633;49.470;11.004;2023-02-28T06:31:10;7.60;;;5.03;;
6823;SDS011;58633;49.470;11.004;2023-02-28T06:33:38;8.80;;;5.40;;
6823;SDS011;58633;49.470;11.004;2023-02-28T06:36:05;8.47;;;5.40;;
6823;SDS011;58633;49.470;11.004;2023-02-28T06:38:32;9.87;;;5.47;;
6823;SDS011;58633;49.470;11.004;2023-02-28T06:40:58;7.20;;;5.03;;
6823;SDS011;58633;49.470;11.004;2023-02-28T06:43:25;9.90;;;5.70;;
6823;SDS011;58633;49.470;11.004;2023-02-28T06:45:55;8.60;;;5.57;;
6823;SDS011;58633;49.470;11.004;2023-02-28T06:48:23;8.80;;;5.40;;
6823;SDS011;58633;49.470;11.004;2023-02-28T06:50:49;9.20;;;6.00;;
6823;SDS011;58633;49.470;11.004;2023-02-28T06:53:15;8.33;;;6.07;;
6823;SDS011;58633;49.470;11.004;2023-02-28T06:55:40;12.70;;;6.73;;
6823;SDS011;58633;49.470;11.004;2023-02-28T06:58:06;10.00;;;5.77;;
6823;SDS011;58633;49.470;11.004;2023-02-28T07:00:44;10.10;;;5.87;;
6823;SDS011;58633;49.470;11.004;2023-02-28T07:03:11;9.17;;;5.53;;
6823;SDS011;58633;49.470;11.004;2023-02-28T07:05:38;8.20;;;5.67;;
6823;SDS011;58633;49.470;11.004;2023-02-28T07:08:04;8.50;;;5.80;;
6823;SDS011;58633;49.470;11.004;2023-02-28T07:10:31;8.53;;;5.20;;
6823;SDS011;58633;49.470;11.004;2023-02-28T07:12:59;8.80;;;5.83;;
6823;SDS011;58633;49.470;11.004;2023-02-28T07:15:25;10.93;;;6.33;;
6823;SDS011;58633;49.470;11.004;2023-02-28T07:17:51;7.60;;;5.57;;
6823;SDS011;58633;49.470;11.004;2023-02-28T07:20:16;10.97;;;5.63;;
6823;SDS011;58633;49.470;11.004;2023-02-28T07:22:42;8.87;;;5.93;;
6823;SDS011;58633;49.470;11.004;2023-02-28T07:25:08;10.63;;;5.57;;
6823;SDS011;58633;49.470;11.004;2023-02-28T07:27:33;9.73;;;6.23;;
6823;SDS011;58633;49.470;11.004;2023-02-28T07:29:59;11.27;;;6.20;;
6823;SDS011;58633;49.470;11.004;2023-02-28T07:32:26;9.23;;;6.00;;
6823;SDS011;58633;49.470;11.004;2023-02-28T07:34:52;8.93;;;5.73;;
6823;SDS011;58633;49.470;11.004;2023-02-28T07:37:18;10.37;;;6.00;;
6823;SDS011;58633;49.470;11.004;2023-02-28T07:39:44;9.47;;;6.37;;
6823;SDS011;58633;49.470;11.004;2023-02-28T07:42:09;10.17;;;6.50;;
6823;SDS011;58633;49.470;11.004;2023-02-28T07:44:37;8.87;;;5.67;;
6823;SDS011;58633;49.470;11.004;2023-02-28T07:47:05;8.47;;;6.13;;
6823;SDS011;58633;49.470;11.004;2023-02-28T07:49:35;16.77;;;9.27;;
6823;SDS011;58633;49.470;11.004;2023-02-28T07:52:01;10.13;;;6.00;;
6823;SDS011;58633;49.470;11.004;2023-02-28T07:54:30;12.00;;;6.00;;
6823;SDS011;58633;49.470;11.004;2023-02-28T07:56:56;9.87;;;5.50;;
6823;SDS011;58633;49.470;11.004;2023-02-28T07:59:22;10.53;;;6.20;;
6823;SDS011;58633;49.470;11.004;2023-02-28T08:01:47;9.87;;;6.57;;
6823;SDS011;58633;49.470;11.004;2023-02-28T08:04:15;11.80;;;6.57;;
6823;SDS011;58633;49.470;11.004;2023-02-28T08:06:43;11.00;;;6.40;;
6823;SDS011;58633;49.470;11.004;2023-02-28T08:09:09;9.67;;;6.90;;
6823;SDS011;58633;49.470;11.004;2023-02-28T08:11:35;11.00;;;6.73;;
6823;SDS011;58633;49.470;11.004;2023-02-28T08:14:01;11.67;;;6.27;;
6823;SDS011;58633;49.470;11.004;2023-02-28T08:16:26;35.03;;;7.90;;
6823;SDS011;58633;49.470;11.004;2023-02-28T08:18:52;18.27;;;6.43;;
6823;SDS011;58633;49.470;11.004;2023-02-28T08:21:18;17.53;;;6.77;;
6823;SDS011;58633;49.470;11.004;2023-02-28T08:23:48;9.97;;;7.10;;
6823;SDS011;58633;49.470;11.004;2023-02-28T08:26:15;10.37;;;5.70;;
6823;SDS011;58633;49.470;11.004;2023-02-28T08:28:41;13.00;;;6.50;;
6823;SDS011;58633;49.470;11.004;2023-02-28T08:31:10;10.07;;;6.50;;
6823;SDS011;58633;49.470;11.004;2023-02-28T08:33:36;9.63;;;5.97;;
6823;SDS011;58633;49.470;11.004;2023-02-28T08:36:03;8.13;;;6.27;;
6823;SDS011;58633;49.470;11.004;2023-02-28T08:38:30;9.40;;;5.80;;
6823;SDS011;58633;49.470;11.004;2023-02-28T08:40:59;9.33;;;6.03;;
6823;SDS011;58633;49.470;11.004;2023-02-28T08:43:26;8.23;;;5.83;;
6823;SDS011;58633;49.470;11.004;2023-02-28T08:45:53;8.93;;;5.70;;
6823;SDS011;58633;49.470;11.004;2023-02-28T08:48:21;8.47;;;5.80;;
6823;SDS011;58633;49.470;11.004;2023-02-28T08:51:01;10.30;;;6.33;;
6823;SDS011;58633;49.470;11.004;2023-02-28T08:53:37;9.53;;;6.20;;
6823;SDS011;58633;49.470;11.004;2023-02-28T08:58:31;9.93;;;6.50;;
6823;SDS011;58633;49.470;11.004;2023-02-28T09:00:58;9.67;;;6.13;;
6823;SDS011;58633;49.470;11.004;2023-02-28T09:03:24;9.97;;;6.10;;
6823;SDS011;58633;49.470;11.004;2023-02-28T09:05:53;10.80;;;6.90;;
6823;SDS011;58633;49.470;11.004;2023-02-28T09:08:24;11.73;;;6.40;;
6823;SDS011;58633;49.470;11.004;2023-02-28T09:10:51;8.63;;;6.37;;
6823;SDS011;58633;49.470;11.004;2023-02-28T09:13:17;10.63;;;6.53;;
6823;SDS011;58633;49.470;11.004;2023-02-28T09:15:43;10.67;;;6.30;;
6823;SDS011;58633;49.470;11.004;2023-02-28T09:18:09;9.37;;;6.33;;
6823;SDS011;58633;49.470;11.004;2023-02-28T09:20:39;10.27;;;6.20;;
6823;SDS011;58633;49.470;11.004;2023-02-28T09:23:06;9.77;;;6.57;;
6823;SDS011;58633;49.470;11.004;2023-02-28T09:25:32;10.20;;;6.60;;
6823;SDS011;58633;49.470;11.004;2023-02-28T09:27:58;10.77;;;6.80;;
6823;SDS011;58633;49.470;11.004;2023-02-28T09:30:24;11.20;;;6.90;;
6823;SDS011;58633;49.470;11.004;2023-02-28T09:32:50;14.90;;;6.20;;
6823;SDS011;58633;49.470;11.004;2023-02-28T09:35:18;12.47;;;6.93;;
6823;SDS011;58633;49.470;11.004;2023-02-28T09:37:45;9.27;;;6.23;;
6823;SDS011;58633;49.470;11.004;2023-02-28T09:40:12;9.27;;;6.43;;
6823;SDS011;58633;49.470;11.004;2023-02-28T09:42:39;9.63;;;5.63;;
6823;SDS011;58633;49.470;11.004;2023-02-28T09:45:13;9.67;;;6.17;;
6823;SDS011;58633;49.470;11.004;2023-02-28T09:48:02;11.60;;;6.73;;
6823;SDS011;58633;49.470;11.004;2023-02-28T09:50:38;8.40;;;6.40;;
6823;SDS011;58633;49.470;11.004;2023-02-28T09:53:25;10.93;;;6.60;;
6823;SDS011;58633;49.470;11.004;2023-02-28T09:55:55;10.53;;;6.40;;
6823;SDS011;58633;49.470;11.004;2023-02-28T09:58:37;14.40;;;6.73;;
6823;SDS011;58633;49.470;11.004;2023-02-28T10:01:19;8.83;;;5.93;;
6823;SDS011;58633;49.470;11.004;2023-02-28T10:06:20;9.57;;;5.50;;
6823;SDS011;58633;49.470;11.004;2023-02-28T10:09:08;9.77;;;5.20;;
6823;SDS011;58633;49.470;11.004;2023-02-28T10:11:38;7.50;;;5.63;;
6823;SDS011;58633;49.470;11.004;2023-02-28T10:16:47;8.43;;;5.90;;
6823;SDS011;58633;49.470;11.004;2023-02-28T10:19:30;9.67;;;5.80;;
6823;SDS011;58633;49.470;11.004;2023-02-28T10:22:33;6.97;;;5.63;;
6823;SDS011;58633;49.470;11.004;2023-02-28T10:25:17;8.23;;;5.90;;
6823;SDS011;58633;49.470;11.004;2023-02-28T10:27:49;8.93;;;5.27;;
6823;SDS011;58633;49.470;11.004;2023-02-28T10:30:18;10.10;;;6.13;;
6823;SDS011;58633;49.470;11.004;2023-02-28T10:32:51;9.23;;;5.87;;
6823;SDS011;58633;49.470;11.004;2023-02-28T10:35:23;9.20;;;5.60;;
6823;SDS011;58633;49.470;11.004;2023-02-28T10:37:55;9.00;;;5.40;;
6823;SDS011;58633;49.470;11.004;2023-02-28T10:42:55;8.83;;;5.80;;
6823;SDS011;58633;49.470;11.004;2023-02-28T10:45:25;8.17;;;5.37;;
6823;SDS011;58633;49.470;11.004;2023-02-28T10:47:56;9.30;;;5.43;;
6823;SDS011;58633;49.470;11.004;2023-02-28T10:55:35;8.10;;;5.63;;
6823;SDS011;58633;49.470;11.004;2023-02-28T10:58:01;11.27;;;5.40;;
6823;SDS011;58633;49.470;11.004;2023-02-28T11:00:31;9.17;;;5.17;;
6823;SDS011;58633;49.470;11.004;2023-02-28T11:02:59;7.63;;;5.17;;
6823;SDS011;58633;49.470;11.004;2023-02-28T11:07:55;7.57;;;5.43;;
6823;SDS011;58633;49.470;11.004;2023-02-28T11:10:25;8.97;;;5.73;;
6823;SDS011;58633;49.470;11.004;2023-02-28T11:12:54;9.83;;;5.57;;
6823;SDS011;58633;49.470;11.004;2023-02-28T11:15:26;9.03;;;5.47;;
6823;SDS011;58633;49.470;11.004;2023-02-28T11:20:21;8.83;;;5.47;;
6823;SDS011;58633;49.470;11.004;2023-02-28T11:22:49;8.80;;;5.53;;
6823;SDS011;58633;49.470;11.004;2023-02-28T11:25:19;7.33;;;5.10;;
6823;SDS011;58633;49.470;11.004;2023-02-28T11:27:49;6.67;;;5.03;;
6823;SDS011;58633;49.470;11.004;2023-02-28T11:32:51;8.30;;;5.63;;
6823;SDS011;58633;49.470;11.004;2023-02-28T11:35:18;8.53;;;5.80;;
6823;SDS011;58633;49.470;11.004;2023-02-28T11:37:49;8.03;;;5.40;;
6823;SDS011;58633;49.470;11.004;2023-02-28T11:40:17;6.63;;;5.13;;
6823;SDS011;58633;49.470;11.004;2023-02-28T11:51:27;6.57;;;5.10;;
6823;SDS011;58633;49.470;11.004;2023-02-28T12:00:25;7.90;;;5.83;;
6823;SDS011;58633;49.470;11.004;2023-02-28T12:02:59;7.13;;;5.10;;
6823;SDS011;58633;49.470;11.004;2023-02-28T12:05:45;6.73;;;5.40;;
6823;SDS011;58633;49.470;11.004;2023-02-28T12:13:53;8.73;;;5.43;;
6823;SDS011;58633;49.470;11.004;2023-02-28T12:17:00;7.50;;;5.75;;
6823;SDS011;58633;49.470;11.004;2023-02-28T12:24:52;8.80;;;5.65;;
6823;SDS011;58633;49.470;11.004;2023-02-28T12:27:20;7.82;;;5.72;;
6823;SDS011;58633;49.470;11.004;2023-02-28T12:29:51;8.00;;;5.68;;
6823;SDS011;58633;49.470;11.004;2023-02-28T12:32:23;6.85;;;5.40;;
6823;SDS011;58633;49.470;11.004;2023-02-28T12:34:56;7.68;;;5.70;;
6823;SDS011;58633;49.470;11.004;2023-02-28T12:40:00;8.82;;;5.40;;
6823;SDS011;58633;49.470;11.004;2023-02-28T12:42:31;6.70;;;5.30;;
6823;SDS011;58633;49.470;11.004;2023-02-28T12:45:05;8.13;;;5.50;;
6823;SDS011;58633;49.470;11.004;2023-02-28T12:47:38;8.35;;;5.68;;
6823;SDS011;58633;49.470;11.004;2023-02-28T12:50:06;7.30;;;5.80;;
6823;SDS011;58633;49.470;11.004;2023-02-28T12:55:35;7.15;;;5.43;;
6823;SDS011;58633;49.470;11.004;2023-02-28T13:00:49;8.80;;;5.50;;
6823;SDS011;58633;49.470;11.004;2023-02-28T13:03:52;8.05;;;5.88;;
6823;SDS011;58633;49.470;11.004;2023-02-28T13:06:45;7.90;;;5.82;;
6823;SDS011;58633;49.470;11.004;2023-02-28T13:09:35;7.50;;;5.53;;
6823;SDS011;58633;49.470;11.004;2023-02-28T13:12:04;10.63;;;5.97;;
6823;SDS011;58633;49.470;11.004;2023-02-28T13:14:38;7.57;;;5.20;;
6823;SDS011;58633;49.470;11.004;2023-02-28T13:24:54;9.02;;;6.00;;
6823;SDS011;58633;49.470;11.004;2023-02-28T13:30:00;9.55;;;6.28;;
6823;SDS011;58633;49.470;11.004;2023-02-28T13:32:46;8.43;;;6.28;;
6823;SDS011;58633;49.470;11.004;2023-02-28T13:35:35;7.47;;;5.90;;
6823;SDS011;58633;49.470;11.004;2023-02-28T13:38:09;9.15;;;6.30;;
6823;SDS011;58633;49.470;11.004;2023-02-28T13:40:40;8.80;;;6.95;;
6823;SDS011;58633;49.470;11.004;2023-02-28T13:43:07;8.05;;;6.55;;
6823;SDS011;58633;49.470;11.004;2023-02-28T13:45:33;9.13;;;6.47;;
6823;SDS011;58633;49.470;11.004;2023-02-28T13:48:14;8.80;;;6.50;;
6823;SDS011;58633;49.470;11.004;2023-02-28T13:50:42;7.93;;;6.28;;
6823;SDS011;58633;49.470;11.004;2023-02-28T13:58:20;10.80;;;6.82;;
6823;SDS011;58633;49.470;11.004;2023-02-28T14:01:11;7.18;;;5.70;;
6823;SDS011;58633;49.470;11.004;2023-02-28T14:06:53;11.63;;;7.90;;
6823;SDS011;58633;49.470;11.004;2023-02-28T14:09:24;9.85;;;7.78;;
6823;SDS011;58633;49.470;11.004;2023-02-28T14:11:57;9.82;;;7.40;;
6823;SDS011;58633;49.470;11.004;2023-02-28T14:17:12;8.13;;;6.38;;
6823;SDS011;58633;49.470;11.004;2023-02-28T14:19:40;7.55;;;6.25;;
6823;SDS011;58633;49.470;11.004;2023-02-28T14:24:51;8.98;;;6.85;;
6823;SDS011;58633;49.470;11.004;2023-02-28T14:36:32;7.63;;;6.40;;
6823;SDS011;58633;49.470;11.004;2023-02-28T14:39:03;9.55;;;6.47;;
6823;SDS011;58633;49.470;11.004;2023-02-28T14:41:36;9.13;;;6.82;;
6823;SDS011;58633;49.470;11.004;2023-02-28T14:44:37;8.80;;;6.45;;
6823;SDS011;58633;49.470;11.004;2023-02-28T14:46:57;8.77;;;6.63;;
6823;SDS011;58633;49.470;11.004;2023-02-28T14:49:34;8.80;;;6.55;;
6823;SDS011;58633;49.470;11.004;2023-02-28T14:54:34;8.27;;;6.60;;
6823;SDS011;58633;49.470;11.004;2023-02-28T14:57:01;8.75;;;7.07;;
6823;SDS011;58633;49.470;11.004;2023-02-28T14:59:32;8.98;;;6.90;;
6823;SDS011;58633;49.470;11.004;2023-02-28T15:04:52;7.97;;;6.72;;
6823;SDS011;58633;49.470;11.004;2023-02-28T15:07:38;9.85;;;6.75;;
6823;SDS011;58633;49.470;11.004;2023-02-28T15:12:34;7.68;;;6.60;;
6823;SDS011;58633;49.470;11.004;2023-02-28T15:15:01;8.15;;;6.22;;
6823;SDS011;58633;49.470;11.004;2023-02-28T15:17:27;8.20;;;6.75;;
6823;SDS011;58633;49.470;11.004;2023-02-28T15:19:53;8.50;;;6.70;;
6823;SDS011;58633;49.470;11.004;2023-02-28T15:22:23;8.85;;;6.60;;
6823;SDS011;58633;49.470;11.004;2023-02-28T15:24:58;8.65;;;6.75;;
6823;SDS011;58633;49.470;11.004;2023-02-28T15:27:25;7.97;;;6.32;;
6823;SDS011;58633;49.470;11.004;2023-02-28T15:29:56;12.57;;;6.57;;
6823;SDS011;58633;49.470;11.004;2023-02-28T15:34:54;10.13;;;7.32;;
6823;SDS011;58633;49.470;11.004;2023-02-28T15:37:25;9.00;;;7.05;;
6823;SDS011;58633;49.470;11.004;2023-02-28T15:39:51;11.77;;;6.68;;
6823;SDS011;58633;49.470;11.004;2023-02-28T15:42:20;7.88;;;6.45;;
6823;SDS011;58633;49.470;11.004;2023-02-28T15:44:47;9.07;;;7.25;;
6823;SDS011;58633;49.470;11.004;2023-02-28T15:47:31;8.52;;;7.10;;
6823;SDS011;58633;49.470;11.004;2023-02-28T15:49:59;11.05;;;7.10;;
6823;SDS011;58633;49.470;11.004;2023-02-28T15:55:08;8.68;;;6.70;;
6823;SDS011;58633;49.470;11.004;2023-02-28T15:57:45;11.13;;;7.35;;
6823;SDS011;58633;49.470;11.004;2023-02-28T16:00:14;9.10;;;6.82;;
6823;SDS011;58633;49.470;11.004;2023-02-28T16:02:43;9.50;;;6.90;;
6823;SDS011;58633;49.470;11.004;2023-02-28T16:07:38;9.27;;;7.05;;
6823;SDS011;58633;49.470;11.004;2023-02-28T16:10:06;10.25;;;7.18;;
6823;SDS011;58633;49.470;11.004;2023-02-28T16:12:35;10.68;;;7.45;;
6823;SDS011;58633;49.470;11.004;2023-02-28T16:15:05;10.82;;;7.32;;
6823;SDS011;58633;49.470;11.004;2023-02-28T16:17:46;10.07;;;7.05;;
6823;SDS011;58633;49.470;11.004;2023-02-28T16:20:23;8.60;;;7.15;;
6823;SDS011;58633;49.470;11.004;2023-02-28T16:22:50;9.38;;;7.43;;
6823;SDS011;58633;49.470;11.004;2023-02-28T16:25:17;11.20;;;7.57;;
6823;SDS011;58633;49.470;11.004;2023-02-28T16:27:47;13.00;;;7.63;;
6823;SDS011;58633;49.470;11.004;2023-02-28T16:30:17;9.60;;;7.25;;
6823;SDS011;58633;49.470;11.004;2023-02-28T16:32:46;9.57;;;7.15;;
6823;SDS011;58633;49.470;11.004;2023-02-28T16:35:11;9.55;;;6.85;;
6823;SDS011;58633;49.470;11.004;2023-02-28T16:37:38;10.70;;;7.65;;
6823;SDS011;58633;49.470;11.004;2023-02-28T16:40:04;12.30;;;7.95;;
6823;SDS011;58633;49.470;11.004;2023-02-28T16:42:31;11.77;;;8.05;;
6823;SDS011;58633;49.470;11.004;2023-02-28T16:44:57;11.75;;;7.30;;
6823;SDS011;58633;49.470;11.004;2023-02-28T16:47:23;11.70;;;7.40;;
6823;SDS011;58633;49.470;11.004;2023-02-28T16:49:51;13.47;;;8.20;;
6823;SDS011;58633;49.470;11.004;2023-02-28T16:52:17;10.80;;;7.53;;
6823;SDS011;58633;49.470;11.004;2023-02-28T16:54:42;11.10;;;7.93;;
6823;SDS011;58633;49.470;11.004;2023-02-28T16:57:17;12.10;;;7.53;;
6823;SDS011;58633;49.470;11.004;2023-02-28T16:59:46;12.77;;;7.27;;
6823;SDS011;58633;49.470;11.004;2023-02-28T17:02:13;10.70;;;7.43;;
6823;SDS011;58633;49.470;11.004;2023-02-28T17:04:41;12.67;;;7.13;;
6823;SDS011;58633;49.470;11.004;2023-02-28T17:07:14;12.40;;;8.00;;
6823;SDS011;58633;49.470;11.004;2023-02-28T17:09:41;9.93;;;7.07;;
6823;SDS011;58633;49.470;11.004;2023-02-28T17:12:08;10.90;;;7.40;;
6823;SDS011;58633;49.470;11.004;2023-02-28T17:14:34;12.53;;;7.50;;
6823;SDS011;58633;49.470;11.004;2023-02-28T17:16:59;10.90;;;7.23;;
6823;SDS011;58633;49.470;11.004;2023-02-28T17:19:25;11.13;;;7.07;;
6823;SDS011;58633;49.470;11.004;2023-02-28T17:21:53;12.07;;;8.07;;